sensor_id;sensor_type;location;lat;lon;timestamp;P1;durP1;ratioP1;P2;durP2;ratioP2
7158;SDS011;63175;52.374;13.132;2022-09-09T00:00:18;2.20;;;2.10;;
7158;SDS011;63175;52.374;13.132;2022-09-09T00:02:47;1.80;;;1.70;;
7158;SDS011;63175;52.374;13.132;2022-09-09T00:05:22;2.30;;;2.13;;
7158;SDS011;63175;52.374;13.132;2022-09-09T00:07:55;1.70;;;1.70;;
7158;SDS011;63175;52.374;13.132;2022-09-09T00:10:27;1.73;;;1.73;;
7158;SDS011;63175;52.374;13.132;2022-09-09T00:12:59;1.20;;;1.20;;
7158;SDS011;63175;52.374;13.132;2022-09-09T00:15:31;1.70;;;1.60;;
7158;SDS011;63175;52.374;13.132;2022-09-09T00:18:07;1.60;;;1.60;;
7158;SDS011;63175;52.374;13.132;2022-09-09T00:20:40;1.80;;;1.80;;
7158;SDS011;63175;52.374;13.132;2022-09-09T00:23:17;1.30;;;1.30;;
7158;SDS011;63175;52.374;13.132;2022-09-09T00:25:52;1.70;;;1.63;;
7158;SDS011;63175;52.374;13.132;2022-09-09T00:28:27;2.27;;;2.17;;
7158;SDS011;63175;52.374;13.132;2022-09-09T00:33:27;1.90;;;1.83;;
7158;SDS011;63175;52.374;13.132;2022-09-09T00:35:57;1.80;;;1.70;;
7158;SDS011;63175;52.374;13.132;2022-09-09T00:38:27;1.87;;;1.77;;
7158;SDS011;63175;52.374;13.132;2022-09-09T00:41:00;3.00;;;1.80;;
7158;SDS011;63175;52.374;13.132;2022-09-09T00:43:34;1.80;;;1.80;;
7158;SDS011;63175;52.374;13.132;2022-09-09T00:49:04;3.30;;;3.20;;
7158;SDS011;63175;52.374;13.132;2022-09-09T00:51:44;2.20;;;2.10;;
7158;SDS011;63175;52.374;13.132;2022-09-09T00:54:28;2.43;;;2.30;;
7158;SDS011;63175;52.374;13.132;2022-09-09T00:57:04;2.33;;;2.23;;
7158;SDS011;63175;52.374;13.132;2022-09-09T00:59:43;2.30;;;2.20;;
7158;SDS011;63175;52.374;13.132;2022-09-09T01:02:16;1.80;;;1.80;;
7158;SDS011;63175;52.374;13.132;2022-09-09T01:04:53;2.47;;;2.33;;
7158;SDS011;63175;52.374;13.132;2022-09-09T01:07:20;1.90;;;1.90;;
7158;SDS011;63175;52.374;13.132;2022-09-09T01:09:51;2.37;;;2.27;;
7158;SDS011;63175;52.374;13.132;2022-09-09T01:12:25;2.17;;;2.07;;
7158;SDS011;63175;52.374;13.132;2022-09-09T01:15:03;1.90;;;1.80;;
7158;SDS011;63175;52.374;13.132;2022-09-09T01:17:36;2.27;;;2.17;;
7158;SDS011;63175;52.374;13.132;2022-09-09T01:20:14;1.87;;;1.80;;
7158;SDS011;63175;52.374;13.132;2022-09-09T01:22:44;1.50;;;1.50;;
7158;SDS011;63175;52.374;13.132;2022-09-09T01:25:30;1.70;;;1.70;;
7158;SDS011;63175;52.374;13.132;2022-09-09T01:28:19;2.07;;;1.97;;
7158;SDS011;63175;52.374;13.132;2022-09-09T01:30:49;2.30;;;2.20;;
7158;SDS011;63175;52.374;13.132;2022-09-09T01:33:17;1.60;;;1.60;;
7158;SDS011;63175;52.374;13.132;2022-09-09T01:35:45;2.53;;;2.43;;
7158;SDS011;63175;52.374;13.132;2022-09-09T01:38:16;2.03;;;1.93;;
7158;SDS011;63175;52.374;13.132;2022-09-09T01:40:44;1.40;;;1.40;;
7158;SDS011;63175;52.374;13.132;2022-09-09T01:43:11;1.80;;;1.80;;
7158;SDS011;63175;52.374;13.132;2022-09-09T01:45:39;2.03;;;1.97;;
7158;SDS011;63175;52.374;13.132;2022-09-09T01:48:08;1.60;;;1.60;;
7158;SDS011;63175;52.374;13.132;2022-09-09T01:50:35;2.53;;;2.43;;
7158;SDS011;63175;52.374;13.132;2022-09-09T01:53:02;1.77;;;1.77;;
7158;SDS011;63175;52.374;13.132;2022-09-09T01:55:30;2.67;;;2.57;;
7158;SDS011;63175;52.374;13.132;2022-09-09T01:58:04;1.90;;;1.90;;
7158;SDS011;63175;52.374;13.132;2022-09-09T02:00:42;3.00;;;2.90;;
7158;SDS011;63175;52.374;13.132;2022-09-09T02:03:16;2.10;;;2.00;;
7158;SDS011;63175;52.374;13.132;2022-09-09T02:05:50;2.10;;;2.00;;
7158;SDS011;63175;52.374;13.132;2022-09-09T02:08:26;2.33;;;2.23;;
7158;SDS011;63175;52.374;13.132;2022-09-09T02:10:59;2.00;;;1.90;;
7158;SDS011;63175;52.374;13.132;2022-09-09T02:13:30;1.90;;;1.80;;
7158;SDS011;63175;52.374;13.132;2022-09-09T02:16:03;2.60;;;2.50;;
7158;SDS011;63175;52.374;13.132;2022-09-09T02:18:35;1.90;;;1.80;;
7158;SDS011;63175;52.374;13.132;2022-09-09T02:21:06;2.70;;;2.60;;
7158;SDS011;63175;52.374;13.132;2022-09-09T02:23:34;2.57;;;2.47;;
7158;SDS011;63175;52.374;13.132;2022-09-09T02:26:02;2.10;;;2.00;;
7158;SDS011;63175;52.374;13.132;2022-09-09T02:28:30;2.37;;;2.27;;
7158;SDS011;63175;52.374;13.132;2022-09-09T02:31:00;2.23;;;2.13;;
7158;SDS011;63175;52.374;13.132;2022-09-09T02:33:30;2.00;;;1.90;;
7158;SDS011;63175;52.374;13.132;2022-09-09T02:35:59;1.83;;;1.73;;
7158;SDS011;63175;52.374;13.132;2022-09-09T02:38:32;2.30;;;2.20;;
7158;SDS011;63175;52.374;13.132;2022-09-09T02:41:02;1.90;;;1.80;;
7158;SDS011;63175;52.374;13.132;2022-09-09T02:43:30;3.40;;;3.27;;
7158;SDS011;63175;52.374;13.132;2022-09-09T02:45:59;2.23;;;2.13;;
7158;SDS011;63175;52.374;13.132;2022-09-09T02:48:35;2.97;;;2.70;;
7158;SDS011;63175;52.374;13.132;2022-09-09T02:51:13;2.90;;;2.80;;
7158;SDS011;63175;52.374;13.132;2022-09-09T02:53:46;2.50;;;2.30;;
7158;SDS011;63175;52.374;13.132;2022-09-09T02:56:17;3.70;;;3.40;;
7158;SDS011;63175;52.374;13.132;2022-09-09T02:58:47;2.47;;;2.37;;
7158;SDS011;63175;52.374;13.132;2022-09-09T03:01:14;2.63;;;2.53;;
7158;SDS011;63175;52.374;13.132;2022-09-09T03:03:43;2.13;;;2.03;;
7158;SDS011;63175;52.374;13.132;2022-09-09T03:06:11;2.73;;;2.63;;
7158;SDS011;63175;52.374;13.132;2022-09-09T03:08:39;3.40;;;3.10;;
7158;SDS011;63175;52.374;13.132;2022-09-09T03:11:07;2.53;;;2.43;;
7158;SDS011;63175;52.374;13.132;2022-09-09T03:13:39;2.70;;;2.60;;
7158;SDS011;63175;52.374;13.132;2022-09-09T03:16:06;3.10;;;3.00;;
7158;SDS011;63175;52.374;13.132;2022-09-09T03:18:33;2.50;;;2.30;;
7158;SDS011;63175;52.374;13.132;2022-09-09T03:21:01;2.30;;;2.20;;
7158;SDS011;63175;52.374;13.132;2022-09-09T03:23:28;2.50;;;2.40;;
7158;SDS011;63175;52.374;13.132;2022-09-09T03:25:54;2.60;;;2.50;;
7158;SDS011;63175;52.374;13.132;2022-09-09T03:28:23;2.40;;;2.30;;
7158;SDS011;63175;52.374;13.132;2022-09-09T03:30:57;2.60;;;2.50;;
7158;SDS011;63175;52.374;13.132;2022-09-09T03:33:25;2.10;;;2.00;;
7158;SDS011;63175;52.374;13.132;2022-09-09T03:35:52;2.60;;;2.50;;
7158;SDS011;63175;52.374;13.132;2022-09-09T03:38:22;2.10;;;2.00;;
7158;SDS011;63175;52.374;13.132;2022-09-09T03:40:50;2.60;;;2.40;;
7158;SDS011;63175;52.374;13.132;2022-09-09T03:43:20;2.60;;;2.37;;
7158;SDS011;63175;52.374;13.132;2022-09-09T03:45:47;2.63;;;2.53;;
7158;SDS011;63175;52.374;13.132;2022-09-09T03:48:14;2.10;;;2.00;;
7158;SDS011;63175;52.374;13.132;2022-09-09T03:50:43;1.90;;;1.80;;
7158;SDS011;63175;52.374;13.132;2022-09-09T03:53:11;2.07;;;1.97;;
7158;SDS011;63175;52.374;13.132;2022-09-09T03:55:39;2.00;;;1.90;;
7158;SDS011;63175;52.374;13.132;2022-09-09T03:58:09;2.00;;;1.90;;
7158;SDS011;63175;52.374;13.132;2022-09-09T04:00:36;1.90;;;1.80;;
7158;SDS011;63175;52.374;13.132;2022-09-09T04:03:08;2.00;;;1.90;;
7158;SDS011;63175;52.374;13.132;2022-09-09T04:05:35;2.00;;;1.90;;
7158;SDS011;63175;52.374;13.132;2022-09-09T04:08:05;2.00;;;1.90;;
7158;SDS011;63175;52.374;13.132;2022-09-09T04:10:32;1.80;;;1.80;;
7158;SDS011;63175;52.374;13.132;2022-09-09T04:13:00;2.20;;;2.10;;
7158;SDS011;63175;52.374;13.132;2022-09-09T04:15:27;2.20;;;2.10;;
7158;SDS011;63175;52.374;13.132;2022-09-09T04:17:54;1.90;;;1.80;;
7158;SDS011;63175;52.374;13.132;2022-09-09T04:20:21;2.10;;;2.00;;
7158;SDS011;63175;52.374;13.132;2022-09-09T04:22:48;2.03;;;1.93;;
7158;SDS011;63175;52.374;13.132;2022-09-09T04:25:15;3.83;;;2.50;;
7158;SDS011;63175;52.374;13.132;2022-09-09T04:27:42;2.73;;;2.53;;
7158;SDS011;63175;52.374;13.132;2022-09-09T04:30:11;2.23;;;2.13;;
7158;SDS011;63175;52.374;13.132;2022-09-09T04:32:38;1.63;;;1.63;;
7158;SDS011;63175;52.374;13.132;2022-09-09T04:35:05;1.80;;;1.70;;
7158;SDS011;63175;52.374;13.132;2022-09-09T04:37:32;1.77;;;1.67;;
7158;SDS011;63175;52.374;13.132;2022-09-09T04:39:59;1.87;;;1.77;;
7158;SDS011;63175;52.374;13.132;2022-09-09T04:42:27;2.57;;;2.40;;
7158;SDS011;63175;52.374;13.132;2022-09-09T04:44:54;3.17;;;2.43;;
7158;SDS011;63175;52.374;13.132;2022-09-09T04:47:22;2.83;;;2.60;;
7158;SDS011;63175;52.374;13.132;2022-09-09T04:49:49;2.70;;;2.60;;
7158;SDS011;63175;52.374;13.132;2022-09-09T04:52:16;4.80;;;3.10;;
7158;SDS011;63175;52.374;13.132;2022-09-09T04:54:43;3.57;;;2.70;;
7158;SDS011;63175;52.374;13.132;2022-09-09T04:57:10;2.60;;;2.40;;
7158;SDS011;63175;52.374;13.132;2022-09-09T04:59:37;2.10;;;2.00;;
7158;SDS011;63175;52.374;13.132;2022-09-09T05:02:05;2.17;;;2.07;;
7158;SDS011;63175;52.374;13.132;2022-09-09T05:04:34;2.30;;;2.20;;
7158;SDS011;63175;52.374;13.132;2022-09-09T05:07:00;2.23;;;1.93;;
7158;SDS011;63175;52.374;13.132;2022-09-09T05:09:27;7.60;;;2.10;;
7158;SDS011;63175;52.374;13.132;2022-09-09T05:11:55;1.53;;;1.43;;
7158;SDS011;63175;52.374;13.132;2022-09-09T05:14:22;2.23;;;2.13;;
7158;SDS011;63175;52.374;13.132;2022-09-09T05:16:49;2.50;;;2.40;;
7158;SDS011;63175;52.374;13.132;2022-09-09T05:19:16;2.60;;;2.40;;
7158;SDS011;63175;52.374;13.132;2022-09-09T05:21:46;2.03;;;1.93;;
7158;SDS011;63175;52.374;13.132;2022-09-09T05:24:13;1.50;;;1.50;;
7158;SDS011;63175;52.374;13.132;2022-09-09T05:26:40;1.27;;;1.27;;
7158;SDS011;63175;52.374;13.132;2022-09-09T05:29:07;2.00;;;1.90;;
7158;SDS011;63175;52.374;13.132;2022-09-09T05:31:33;3.73;;;1.67;;
7158;SDS011;63175;52.374;13.132;2022-09-09T05:34:00;1.87;;;1.77;;
7158;SDS011;63175;52.374;13.132;2022-09-09T05:36:27;2.20;;;2.10;;
7158;SDS011;63175;52.374;13.132;2022-09-09T05:38:55;2.00;;;2.00;;
7158;SDS011;63175;52.374;13.132;2022-09-09T05:41:22;3.57;;;2.33;;
7158;SDS011;63175;52.374;13.132;2022-09-09T05:43:49;1.80;;;1.67;;
7158;SDS011;63175;52.374;13.132;2022-09-09T05:46:17;1.73;;;1.63;;
7158;SDS011;63175;52.374;13.132;2022-09-09T05:48:45;2.83;;;2.57;;
7158;SDS011;63175;52.374;13.132;2022-09-09T05:51:16;2.27;;;2.17;;
7158;SDS011;63175;52.374;13.132;2022-09-09T05:53:44;1.80;;;1.80;;
7158;SDS011;63175;52.374;13.132;2022-09-09T05:56:14;1.60;;;1.60;;
7158;SDS011;63175;52.374;13.132;2022-09-09T05:58:43;4.00;;;1.80;;
7158;SDS011;63175;52.374;13.132;2022-09-09T06:01:13;2.50;;;2.30;;
7158;SDS011;63175;52.374;13.132;2022-09-09T06:03:42;2.00;;;1.90;;
7158;SDS011;63175;52.374;13.132;2022-09-09T06:06:10;2.47;;;2.27;;
7158;SDS011;63175;52.374;13.132;2022-09-09T06:08:38;2.30;;;2.20;;
7158;SDS011;63175;52.374;13.132;2022-09-09T06:11:08;2.30;;;2.20;;
7158;SDS011;63175;52.374;13.132;2022-09-09T06:13:37;2.30;;;2.10;;
7158;SDS011;63175;52.374;13.132;2022-09-09T06:16:05;2.10;;;2.00;;
7158;SDS011;63175;52.374;13.132;2022-09-09T06:18:32;1.87;;;1.77;;
7158;SDS011;63175;52.374;13.132;2022-09-09T06:21:00;1.60;;;1.60;;
7158;SDS011;63175;52.374;13.132;2022-09-09T06:23:28;3.00;;;1.97;;
7158;SDS011;63175;52.374;13.132;2022-09-09T06:26:02;2.60;;;2.10;;
7158;SDS011;63175;52.374;13.132;2022-09-09T06:28:31;6.73;;;2.30;;
7158;SDS011;63175;52.374;13.132;2022-09-09T06:30:59;1.77;;;1.67;;
7158;SDS011;63175;52.374;13.132;2022-09-09T06:33:30;3.67;;;1.80;;
7158;SDS011;63175;52.374;13.132;2022-09-09T06:35:59;1.37;;;1.27;;
7158;SDS011;63175;52.374;13.132;2022-09-09T06:38:27;1.83;;;1.70;;
7158;SDS011;63175;52.374;13.132;2022-09-09T06:40:54;2.37;;;2.17;;
7158;SDS011;63175;52.374;13.132;2022-09-09T06:43:22;1.90;;;1.70;;
7158;SDS011;63175;52.374;13.132;2022-09-09T06:45:53;2.80;;;1.63;;
7158;SDS011;63175;52.374;13.132;2022-09-09T06:48:22;2.00;;;1.90;;
7158;SDS011;63175;52.374;13.132;2022-09-09T06:50:50;2.27;;;1.70;;
7158;SDS011;63175;52.374;13.132;2022-09-09T06:53:19;3.23;;;1.93;;
7158;SDS011;63175;52.374;13.132;2022-09-09T06:55:46;1.97;;;1.80;;
7158;SDS011;63175;52.374;13.132;2022-09-09T06:58:13;1.60;;;1.40;;
7158;SDS011;63175;52.374;13.132;2022-09-09T07:00:42;1.93;;;1.53;;
7158;SDS011;63175;52.374;13.132;2022-09-09T07:03:11;1.90;;;1.13;;
7158;SDS011;63175;52.374;13.132;2022-09-09T07:05:41;2.50;;;2.20;;
7158;SDS011;63175;52.374;13.132;2022-09-09T07:08:10;1.50;;;1.40;;
7158;SDS011;63175;52.374;13.132;2022-09-09T07:10:44;3.63;;;1.60;;
7158;SDS011;63175;52.374;13.132;2022-09-09T07:13:14;1.57;;;1.43;;
7158;SDS011;63175;52.374;13.132;2022-09-09T07:15:42;1.97;;;1.37;;
7158;SDS011;63175;52.374;13.132;2022-09-09T07:18:09;1.33;;;1.23;;
7158;SDS011;63175;52.374;13.132;2022-09-09T07:20:37;1.97;;;1.50;;
7158;SDS011;63175;52.374;13.132;2022-09-09T07:23:06;1.67;;;1.40;;
7158;SDS011;63175;52.374;13.132;2022-09-09T07:25:33;1.30;;;1.20;;
7158;SDS011;63175;52.374;13.132;2022-09-09T07:28:02;2.10;;;1.63;;
7158;SDS011;63175;52.374;13.132;2022-09-09T07:30:30;1.50;;;1.40;;
7158;SDS011;63175;52.374;13.132;2022-09-09T07:32:58;1.60;;;1.50;;
7158;SDS011;63175;52.374;13.132;2022-09-09T07:35:28;1.70;;;1.37;;
7158;SDS011;63175;52.374;13.132;2022-09-09T07:37:55;1.40;;;1.30;;
7158;SDS011;63175;52.374;13.132;2022-09-09T07:43:08;1.50;;;1.40;;
7158;SDS011;63175;52.374;13.132;2022-09-09T07:45:36;1.20;;;1.00;;
7158;SDS011;63175;52.374;13.132;2022-09-09T07:48:05;1.50;;;1.07;;
7158;SDS011;63175;52.374;13.132;2022-09-09T07:50:33;1.30;;;1.20;;
7158;SDS011;63175;52.374;13.132;2022-09-09T07:53:01;1.70;;;1.57;;
7158;SDS011;63175;52.374;13.132;2022-09-09T07:55:34;2.40;;;1.40;;
7158;SDS011;63175;52.374;13.132;2022-09-09T07:58:07;2.60;;;1.20;;
7158;SDS011;63175;52.374;13.132;2022-09-09T08:00:35;2.23;;;1.30;;
7158;SDS011;63175;52.374;13.132;2022-09-09T08:03:02;1.40;;;1.23;;
7158;SDS011;63175;52.374;13.132;2022-09-09T08:05:29;1.57;;;1.30;;
7158;SDS011;63175;52.374;13.132;2022-09-09T08:07:57;1.67;;;1.07;;
7158;SDS011;63175;52.374;13.132;2022-09-09T08:10:25;4.37;;;1.73;;
7158;SDS011;63175;52.374;13.132;2022-09-09T08:12:53;2.53;;;1.30;;
7158;SDS011;63175;52.374;13.132;2022-09-09T08:15:21;2.53;;;1.80;;
7158;SDS011;63175;52.374;13.132;2022-09-09T08:17:49;1.30;;;1.20;;
7158;SDS011;63175;52.374;13.132;2022-09-09T08:20:16;2.70;;;1.10;;
7158;SDS011;63175;52.374;13.132;2022-09-09T08:22:44;2.53;;;1.23;;
7158;SDS011;63175;52.374;13.132;2022-09-09T08:25:13;2.50;;;1.60;;
7158;SDS011;63175;52.374;13.132;2022-09-09T08:27:46;4.17;;;1.80;;
7158;SDS011;63175;52.374;13.132;2022-09-09T08:30:13;1.90;;;1.30;;
7158;SDS011;63175;52.374;13.132;2022-09-09T08:32:42;1.97;;;1.57;;
7158;SDS011;63175;52.374;13.132;2022-09-09T08:35:10;1.67;;;1.23;;
7158;SDS011;63175;52.374;13.132;2022-09-09T08:37:38;1.97;;;1.57;;
7158;SDS011;63175;52.374;13.132;2022-09-09T08:40:07;1.90;;;1.67;;
7158;SDS011;63175;52.374;13.132;2022-09-09T08:42:44;1.30;;;1.20;;
7158;SDS011;63175;52.374;13.132;2022-09-09T08:45:19;2.47;;;1.87;;
7158;SDS011;63175;52.374;13.132;2022-09-09T08:48:07;2.23;;;1.97;;
7158;SDS011;63175;52.374;13.132;2022-09-09T08:50:42;2.03;;;1.90;;
7158;SDS011;63175;52.374;13.132;2022-09-09T08:53:14;1.73;;;1.40;;
7158;SDS011;63175;52.374;13.132;2022-09-09T08:55:46;3.33;;;1.27;;
7158;SDS011;63175;52.374;13.132;2022-09-09T08:58:16;2.13;;;1.33;;
7158;SDS011;63175;52.374;13.132;2022-09-09T09:00:57;1.33;;;1.23;;
7158;SDS011;63175;52.374;13.132;2022-09-09T09:03:40;1.53;;;1.17;;
7158;SDS011;63175;52.374;13.132;2022-09-09T09:06:20;1.73;;;1.40;;
7158;SDS011;63175;52.374;13.132;2022-09-09T09:09:02;1.63;;;1.53;;
7158;SDS011;63175;52.374;13.132;2022-09-09T09:11:35;3.60;;;1.37;;
7158;SDS011;63175;52.374;13.132;2022-09-09T09:14:07;3.33;;;1.33;;
7158;SDS011;63175;52.374;13.132;2022-09-09T09:16:39;2.23;;;1.27;;
7158;SDS011;63175;52.374;13.132;2022-09-09T09:19:14;1.90;;;1.20;;
7158;SDS011;63175;52.374;13.132;2022-09-09T09:21:44;1.40;;;1.30;;
7158;SDS011;63175;52.374;13.132;2022-09-09T09:24:16;1.60;;;1.20;;
7158;SDS011;63175;52.374;13.132;2022-09-09T09:26:46;1.40;;;0.97;;
7158;SDS011;63175;52.374;13.132;2022-09-09T09:29:14;3.67;;;1.37;;
7158;SDS011;63175;52.374;13.132;2022-09-09T09:31:44;2.47;;;1.00;;
7158;SDS011;63175;52.374;13.132;2022-09-09T09:34:17;1.60;;;1.13;;
7158;SDS011;63175;52.374;13.132;2022-09-09T09:36:45;4.20;;;1.17;;
7158;SDS011;63175;52.374;13.132;2022-09-09T09:39:23;3.13;;;0.87;;
7158;SDS011;63175;52.374;13.132;2022-09-09T09:41:53;0.93;;;0.90;;
7158;SDS011;63175;52.374;13.132;2022-09-09T09:44:22;1.23;;;0.70;;
7158;SDS011;63175;52.374;13.132;2022-09-09T09:46:51;1.90;;;1.07;;
7158;SDS011;63175;52.374;13.132;2022-09-09T09:49:20;2.13;;;1.00;;
7158;SDS011;63175;52.374;13.132;2022-09-09T09:51:51;0.80;;;0.70;;
7158;SDS011;63175;52.374;13.132;2022-09-09T09:54:21;0.83;;;0.80;;
7158;SDS011;63175;52.374;13.132;2022-09-09T09:56:54;1.27;;;0.70;;
7158;SDS011;63175;52.374;13.132;2022-09-09T09:59:22;1.70;;;1.00;;
7158;SDS011;63175;52.374;13.132;2022-09-09T10:02:05;2.30;;;0.80;;
7158;SDS011;63175;52.374;13.132;2022-09-09T10:04:46;1.10;;;0.77;;
7158;SDS011;63175;52.374;13.132;2022-09-09T10:07:17;1.83;;;1.10;;
7158;SDS011;63175;52.374;13.132;2022-09-09T10:09:50;1.33;;;0.97;;
7158;SDS011;63175;52.374;13.132;2022-09-09T10:12:25;0.90;;;0.90;;
7158;SDS011;63175;52.374;13.132;2022-09-09T10:15:01;1.80;;;0.90;;
7158;SDS011;63175;52.374;13.132;2022-09-09T10:17:34;4.97;;;1.10;;
7158;SDS011;63175;52.374;13.132;2022-09-09T10:23:03;1.13;;;0.60;;
7158;SDS011;63175;52.374;13.132;2022-09-09T10:25:44;1.17;;;0.83;;
7158;SDS011;63175;52.374;13.132;2022-09-09T10:28:32;1.00;;;0.70;;
7158;SDS011;63175;52.374;13.132;2022-09-09T10:31:11;1.13;;;0.70;;
7158;SDS011;63175;52.374;13.132;2022-09-09T10:33:49;1.83;;;0.80;;
7158;SDS011;63175;52.374;13.132;2022-09-09T10:36:20;1.05;;;0.73;;
7158;SDS011;63175;52.374;13.132;2022-09-09T10:38:52;0.80;;;0.73;;
7158;SDS011;63175;52.374;13.132;2022-09-09T10:41:30;2.80;;;0.88;;
7158;SDS011;63175;52.374;13.132;2022-09-09T10:44:10;2.95;;;1.10;;
7158;SDS011;63175;52.374;13.132;2022-09-09T10:47:11;0.75;;;0.75;;
7158;SDS011;63175;52.374;13.132;2022-09-09T10:50:18;0.40;;;0.32;;
7158;SDS011;63175;52.374;13.132;2022-09-09T10:53:11;0.98;;;0.68;;
7158;SDS011;63175;52.374;13.132;2022-09-09T10:55:45;0.77;;;0.73;;
7158;SDS011;63175;52.374;13.132;2022-09-09T10:58:19;0.68;;;0.60;;
7158;SDS011;63175;52.374;13.132;2022-09-09T11:00:53;0.65;;;0.52;;
7158;SDS011;63175;52.374;13.132;2022-09-09T11:03:27;0.82;;;0.50;;
7158;SDS011;63175;52.374;13.132;2022-09-09T11:05:57;0.50;;;0.50;;
7158;SDS011;63175;52.374;13.132;2022-09-09T11:08:31;0.85;;;0.60;;
7158;SDS011;63175;52.374;13.132;2022-09-09T11:11:06;0.80;;;0.50;;
7158;SDS011;63175;52.374;13.132;2022-09-09T11:13:39;0.70;;;0.70;;
7158;SDS011;63175;52.374;13.132;2022-09-09T11:16:19;1.05;;;0.85;;
7158;SDS011;63175;52.374;13.132;2022-09-09T11:18:52;0.50;;;0.50;;
7158;SDS011;63175;52.374;13.132;2022-09-09T11:21:26;0.73;;;0.60;;
7158;SDS011;63175;52.374;13.132;2022-09-09T11:23:59;1.95;;;0.98;;
7158;SDS011;63175;52.374;13.132;2022-09-09T11:26:31;0.40;;;0.40;;
7158;SDS011;63175;52.374;13.132;2022-09-09T11:29:27;1.30;;;0.90;;
7158;SDS011;63175;52.374;13.132;2022-09-09T11:35:34;0.73;;;0.73;;
7158;SDS011;63175;52.374;13.132;2022-09-09T11:38:28;2.00;;;0.70;;
7158;SDS011;63175;52.374;13.132;2022-09-09T11:41:02;6.43;;;1.00;;
7158;SDS011;63175;52.374;13.132;2022-09-09T11:43:32;1.47;;;0.70;;
7158;SDS011;63175;52.374;13.132;2022-09-09T11:46:06;4.10;;;0.83;;
7158;SDS011;63175;52.374;13.132;2022-09-09T11:48:34;1.10;;;0.80;;
7158;SDS011;63175;52.374;13.132;2022-09-09T11:51:04;3.10;;;0.93;;
7158;SDS011;63175;52.374;13.132;2022-09-09T11:53:34;1.10;;;0.90;;
7158;SDS011;63175;52.374;13.132;2022-09-09T11:56:05;1.97;;;0.90;;
7158;SDS011;63175;52.374;13.132;2022-09-09T11:58:36;2.43;;;1.10;;
7158;SDS011;63175;52.374;13.132;2022-09-09T12:01:13;2.80;;;0.70;;
7158;SDS011;63175;52.374;13.132;2022-09-09T12:04:00;1.10;;;0.70;;
7158;SDS011;63175;52.374;13.132;2022-09-09T12:06:43;2.10;;;0.90;;
7158;SDS011;63175;52.374;13.132;2022-09-09T12:09:17;2.20;;;0.80;;
7158;SDS011;63175;52.374;13.132;2022-09-09T12:12:25;1.20;;;0.80;;
7158;SDS011;63175;52.374;13.132;2022-09-09T12:15:17;1.40;;;0.80;;
7158;SDS011;63175;52.374;13.132;2022-09-09T12:17:53;1.47;;;0.70;;
7158;SDS011;63175;52.374;13.132;2022-09-09T12:20:23;2.80;;;1.03;;
7158;SDS011;63175;52.374;13.132;2022-09-09T12:23:10;2.80;;;0.83;;
7158;SDS011;63175;52.374;13.132;2022-09-09T12:28:52;2.50;;;0.80;;
7158;SDS011;63175;52.374;13.132;2022-09-09T12:31:25;1.77;;;1.00;;
7158;SDS011;63175;52.374;13.132;2022-09-09T12:34:02;1.23;;;0.90;;
7158;SDS011;63175;52.374;13.132;2022-09-09T12:36:36;1.70;;;0.83;;
7158;SDS011;63175;52.374;13.132;2022-09-09T12:39:09;2.07;;;1.20;;
7158;SDS011;63175;52.374;13.132;2022-09-09T12:41:50;1.63;;;0.93;;
7158;SDS011;63175;52.374;13.132;2022-09-09T12:44:24;1.70;;;0.80;;
7158;SDS011;63175;52.374;13.132;2022-09-09T12:46:53;1.53;;;1.10;;
7158;SDS011;63175;52.374;13.132;2022-09-09T12:49:28;7.20;;;1.00;;
7158;SDS011;63175;52.374;13.132;2022-09-09T12:52:01;1.93;;;1.00;;
7158;SDS011;63175;52.374;13.132;2022-09-09T12:54:32;4.47;;;1.23;;
7158;SDS011;63175;52.374;13.132;2022-09-09T12:57:01;2.27;;;0.90;;
7158;SDS011;63175;52.374;13.132;2022-09-09T12:59:36;1.30;;;1.17;;
7158;SDS011;63175;52.374;13.132;2022-09-09T13:02:11;1.83;;;1.10;;
7158;SDS011;63175;52.374;13.132;2022-09-09T13:04:45;3.10;;;1.37;;
7158;SDS011;63175;52.374;13.132;2022-09-09T13:07:13;3.00;;;1.30;;
7158;SDS011;63175;52.374;13.132;2022-09-09T13:09:41;7.83;;;1.27;;
7158;SDS011;63175;52.374;13.132;2022-09-09T13:12:11;1.80;;;1.00;;
7158;SDS011;63175;52.374;13.132;2022-09-09T13:14:43;2.30;;;1.00;;
7158;SDS011;63175;52.374;13.132;2022-09-09T13:17:17;2.33;;;1.47;;
7158;SDS011;63175;52.374;13.132;2022-09-09T13:19:50;1.00;;;0.77;;
7158;SDS011;63175;52.374;13.132;2022-09-09T13:22:20;2.20;;;0.80;;
7158;SDS011;63175;52.374;13.132;2022-09-09T13:24:58;1.20;;;0.70;;
7158;SDS011;63175;52.374;13.132;2022-09-09T13:27:29;1.20;;;0.90;;
7158;SDS011;63175;52.374;13.132;2022-09-09T13:32:59;1.13;;;0.90;;
7158;SDS011;63175;52.374;13.132;2022-09-09T13:35:31;2.63;;;0.90;;
7158;SDS011;63175;52.374;13.132;2022-09-09T13:37:59;4.40;;;1.10;;
7158;SDS011;63175;52.374;13.132;2022-09-09T13:40:35;1.53;;;0.87;;
7158;SDS011;63175;52.374;13.132;2022-09-09T13:43:02;1.87;;;1.10;;
7158;SDS011;63175;52.374;13.132;2022-09-09T13:45:32;1.50;;;0.90;;
7158;SDS011;63175;52.374;13.132;2022-09-09T13:48:07;1.27;;;0.90;;
7158;SDS011;63175;52.374;13.132;2022-09-09T13:50:38;1.83;;;1.13;;
7158;SDS011;63175;52.374;13.132;2022-09-09T13:53:07;2.50;;;0.73;;
7158;SDS011;63175;52.374;13.132;2022-09-09T13:55:34;1.20;;;0.70;;
7158;SDS011;63175;52.374;13.132;2022-09-09T13:58:04;1.33;;;0.80;;
7158;SDS011;63175;52.374;13.132;2022-09-09T14:00:35;2.60;;;0.87;;
7158;SDS011;63175;52.374;13.132;2022-09-09T14:03:05;1.63;;;1.10;;
7158;SDS011;63175;52.374;13.132;2022-09-09T14:05:33;2.10;;;0.90;;
7158;SDS011;63175;52.374;13.132;2022-09-09T14:08:01;2.50;;;0.70;;
7158;SDS011;63175;52.374;13.132;2022-09-09T14:10:30;1.70;;;0.80;;
7158;SDS011;63175;52.374;13.132;2022-09-09T14:13:00;4.87;;;0.80;;
7158;SDS011;63175;52.374;13.132;2022-09-09T14:15:28;2.53;;;0.70;;
7158;SDS011;63175;52.374;13.132;2022-09-09T14:17:57;2.47;;;1.10;;
7158;SDS011;63175;52.374;13.132;2022-09-09T14:20:25;1.60;;;0.90;;
7158;SDS011;63175;52.374;13.132;2022-09-09T14:22:52;3.43;;;1.30;;
7158;SDS011;63175;52.374;13.132;2022-09-09T14:25:22;4.50;;;1.10;;
7158;SDS011;63175;52.374;13.132;2022-09-09T14:27:50;3.30;;;1.10;;
7158;SDS011;63175;52.374;13.132;2022-09-09T14:30:17;2.63;;;1.00;;
7158;SDS011;63175;52.374;13.132;2022-09-09T14:32:45;1.47;;;1.20;;
7158;SDS011;63175;52.374;13.132;2022-09-09T14:35:14;1.50;;;1.00;;
7158;SDS011;63175;52.374;13.132;2022-09-09T14:37:42;3.17;;;1.10;;
7158;SDS011;63175;52.374;13.132;2022-09-09T14:40:11;2.80;;;1.30;;
7158;SDS011;63175;52.374;13.132;2022-09-09T14:42:39;1.50;;;0.80;;
7158;SDS011;63175;52.374;13.132;2022-09-09T14:45:06;2.20;;;0.90;;
7158;SDS011;63175;52.374;13.132;2022-09-09T14:47:34;1.57;;;0.90;;
7158;SDS011;63175;52.374;13.132;2022-09-09T14:50:03;4.80;;;1.30;;
7158;SDS011;63175;52.374;13.132;2022-09-09T14:52:34;3.03;;;1.00;;
7158;SDS011;63175;52.374;13.132;2022-09-09T14:55:02;3.30;;;1.10;;
7158;SDS011;63175;52.374;13.132;2022-09-09T14:57:29;1.80;;;1.10;;
7158;SDS011;63175;52.374;13.132;2022-09-09T14:59:57;1.20;;;0.80;;
7158;SDS011;63175;52.374;13.132;2022-09-09T15:02:24;3.93;;;1.30;;
7158;SDS011;63175;52.374;13.132;2022-09-09T15:04:52;2.30;;;1.20;;
7158;SDS011;63175;52.374;13.132;2022-09-09T15:07:22;1.33;;;0.90;;
7158;SDS011;63175;52.374;13.132;2022-09-09T15:09:51;2.60;;;0.70;;
7158;SDS011;63175;52.374;13.132;2022-09-09T15:12:19;1.63;;;1.07;;
7158;SDS011;63175;52.374;13.132;2022-09-09T15:14:47;5.70;;;1.27;;
7158;SDS011;63175;52.374;13.132;2022-09-09T15:17:15;1.87;;;1.03;;
7158;SDS011;63175;52.374;13.132;2022-09-09T15:19:43;1.43;;;0.80;;
7158;SDS011;63175;52.374;13.132;2022-09-09T15:22:11;5.80;;;1.23;;
7158;SDS011;63175;52.374;13.132;2022-09-09T15:24:38;2.20;;;0.93;;
7158;SDS011;63175;52.374;13.132;2022-09-09T15:27:07;3.07;;;1.20;;
7158;SDS011;63175;52.374;13.132;2022-09-09T15:29:35;1.60;;;1.10;;
7158;SDS011;63175;52.374;13.132;2022-09-09T15:32:03;1.40;;;1.00;;